PWSweather.com
Personal Weather Stations
Station Observations
WAIROAHB
Wairoa, Northern Hawkes Bay -NZ 4108

WairoaNorthern Hawkes Bay -NZ 4108

Lat: -39.04516934, Lon: 177.4263989

Elevation: 156

Station Type: WS3083

http://wairoa.net/weather/index.htm

High Low Average
Temperature 72.0°F22.2°C 60.3°F15.7°C 66.3°F19.1°C
Dew Point 65.0°F18.3°C 50.4°F10.2°C 58.2°F14.6°C
Winds 9.8 mph 15.8 kmh Calm Calm 3.0 mph SE4.8 kmh SE
Wind Gusts 19.0 mph30.6 kmh -- 8.0 mph12.9 kmh
Humidity 90% 62% 75%
Pressure 29.91 in1012.9 mb 29.24 in990.2 mb -
Precipitation 0.04 in1.0 mm - -
Hour Temp Dew Point Humidity Winds Wind Gusts Pressure Precip Precip Rate Daily Precip Total
12:00 AM 70.7°F21.5°C 65.0°F18.3°C 82% 1.6 mph N2.6 kmh N 3.8 mph6.1 kmh 29.24 in990.2 mb 0.01 in0.3 mm 0.00 in0.0 mm 0.01 in0.3 mm
12:10 AM 70.2°F21.2°C 64.8°F18.2°C 83% Calm Calm 4.5 mph7.2 kmh 29.25 in990.5 mb 0.01 in0.3 mm 0.00 in0.0 mm 0.01 in0.3 mm
12:20 AM 70.2°F21.2°C 64.8°F18.2°C 83% Calm Calm 3.8 mph6.1 kmh 29.25 in990.5 mb 0.01 in0.3 mm 0.00 in0.0 mm 0.01 in0.3 mm
12:30 AM 70.0°F21.1°C 64.6°F18.1°C 83% Calm Calm 3.1 mph5.0 kmh 29.26 in990.9 mb 0.01 in0.3 mm 0.00 in0.0 mm 0.01 in0.3 mm
12:40 AM 70.0°F21.1°C 64.6°F18.1°C 83% Calm Calm 3.8 mph6.1 kmh 29.27 in991.2 mb 0.01 in0.3 mm 0.00 in0.0 mm 0.01 in0.3 mm
12:50 AM 70.3°F21.3°C 64.3°F17.9°C 81% Calm Calm 7.6 mph12.2 kmh 29.27 in991.2 mb 0.01 in0.3 mm 0.00 in0.0 mm 0.01 in0.3 mm
01:00 AM 70.5°F21.4°C 63.4°F17.4°C 78% 0.7 mph NNW1.1 kmh NNW 6.0 mph9.7 kmh 29.27 in991.2 mb 0.00 in0.0 mm 0.00 in0.0 mm 0.01 in0.3 mm
01:10 AM 70.7°F21.5°C 63.2°F17.3°C 77% 1.6 mph NNW2.6 kmh NNW 5.4 mph8.7 kmh 29.28 in991.5 mb 0.00 in0.0 mm 0.00 in0.0 mm 0.01 in0.3 mm
01:20 AM 70.3°F21.3°C 62.8°F17.1°C 77% 2.2 mph NW3.5 kmh NW 8.3 mph13.4 kmh 29.28 in991.5 mb 0.00 in0.0 mm 0.00 in0.0 mm 0.01 in0.3 mm
01:30 AM 70.3°F21.3°C 62.4°F16.9°C 76% 1.6 mph NNW2.6 kmh NNW 6.0 mph9.7 kmh 29.28 in991.5 mb 0.00 in0.0 mm 0.00 in0.0 mm 0.01 in0.3 mm
01:40 AM 70.3°F21.3°C 62.1°F16.7°C 75% 2.2 mph NNW3.5 kmh NNW 6.9 mph11.1 kmh 29.29 in991.9 mb 0.00 in0.0 mm 0.00 in0.0 mm 0.01 in0.3 mm
01:50 AM 70.2°F21.2°C 61.5°F16.4°C 74% Calm Calm 7.6 mph12.2 kmh 29.29 in991.9 mb 0.00 in0.0 mm 0.00 in0.0 mm 0.01 in0.3 mm
02:00 AM 70.0°F21.1°C 61.3°F16.3°C 74% Calm Calm 7.6 mph12.2 kmh 29.29 in991.9 mb 0.00 in0.0 mm 0.00 in0.0 mm 0.01 in0.3 mm
02:10 AM 69.8°F21.0°C 60.8°F16.0°C 73% 3.1 mph NW5.0 kmh NW 9.2 mph14.8 kmh 29.29 in991.9 mb 0.00 in0.0 mm 0.00 in0.0 mm 0.01 in0.3 mm
02:20 AM 70.0°F21.1°C 61.0°F16.1°C 73% Calm Calm 6.0 mph9.7 kmh 29.30 in992.2 mb 0.00 in0.0 mm 0.00 in0.0 mm 0.01 in0.3 mm
02:30 AM 69.4°F20.8°C 61.2°F16.2°C 75% Calm Calm 3.1 mph5.0 kmh 29.30 in992.2 mb 0.00 in0.0 mm 0.00 in0.0 mm 0.01 in0.3 mm
02:40 AM 69.1°F20.6°C 60.8°F16.0°C 75% Calm Calm 2.2 mph3.5 kmh 29.30 in992.2 mb 0.00 in0.0 mm 0.00 in0.0 mm 0.01 in0.3 mm
02:50 AM 69.1°F20.6°C 60.8°F16.0°C 75% Calm Calm 2.2 mph3.5 kmh 29.31 in992.6 mb 0.00 in0.0 mm 0.00 in0.0 mm 0.01 in0.3 mm
03:00 AM 69.1°F20.6°C 60.5°F15.8°C 74% Calm Calm 0.7 mph1.1 kmh 29.32 in992.9 mb 0.00 in0.0 mm 0.00 in0.0 mm 0.01 in0.3 mm
03:10 AM 69.1°F20.6°C 60.8°F16.0°C 75% Calm Calm -- 29.32 in992.9 mb 0.00 in0.0 mm 0.00 in0.0 mm 0.01 in0.3 mm
03:20 AM 69.3°F20.7°C 60.6°F15.9°C 74% Calm Calm 0.7 mph1.1 kmh 29.32 in992.9 mb 0.00 in0.0 mm 0.00 in0.0 mm 0.01 in0.3 mm
03:30 AM 69.3°F20.7°C 60.6°F15.9°C 74% Calm Calm 0.7 mph1.1 kmh 29.33 in993.2 mb 0.00 in0.0 mm 0.00 in0.0 mm 0.01 in0.3 mm
03:40 AM 69.3°F20.7°C 60.6°F15.9°C 74% Calm Calm 0.7 mph1.1 kmh 29.34 in993.6 mb 0.00 in0.0 mm 0.00 in0.0 mm 0.01 in0.3 mm
03:50 AM 69.1°F20.6°C 60.5°F15.8°C 74% Calm Calm -- 29.34 in993.6 mb 0.00 in0.0 mm 0.00 in0.0 mm 0.01 in0.3 mm
04:00 AM 69.1°F20.6°C 60.5°F15.8°C 74% Calm Calm -- 29.34 in993.6 mb 0.00 in0.0 mm 0.00 in0.0 mm 0.01 in0.3 mm
04:10 AM 68.9°F20.5°C 60.7°F15.9°C 75% Calm Calm -- 29.35 in993.9 mb 0.00 in0.0 mm 0.00 in0.0 mm 0.01 in0.3 mm
04:20 AM 68.5°F20.3°C 60.3°F15.7°C 75% Calm Calm -- 29.35 in993.9 mb 0.00 in0.0 mm 0.00 in0.0 mm 0.01 in0.3 mm
04:30 AM 68.4°F20.2°C 60.5°F15.8°C 76% Calm Calm -- 29.36 in994.2 mb 0.00 in0.0 mm 0.00 in0.0 mm 0.01 in0.3 mm
04:40 AM 68.5°F20.3°C 60.3°F15.7°C 75% Calm Calm -- 29.37 in994.6 mb 0.00 in0.0 mm 0.00 in0.0 mm 0.01 in0.3 mm
04:50 AM 68.5°F20.3°C 60.7°F15.9°C 76% Calm Calm -- 29.38 in994.9 mb 0.00 in0.0 mm 0.00 in0.0 mm 0.01 in0.3 mm
05:00 AM 68.4°F20.2°C 60.5°F15.8°C 76% Calm Calm -- 29.38 in994.9 mb 0.00 in0.0 mm 0.00 in0.0 mm 0.01 in0.3 mm
05:10 AM 68.2°F20.1°C 60.7°F15.9°C 77% Calm Calm -- 29.39 in995.3 mb 0.00 in0.0 mm 0.00 in0.0 mm 0.01 in0.3 mm
05:20 AM 68.0°F20.0°C 60.5°F15.8°C 77% Calm Calm -- 29.39 in995.3 mb 0.00 in0.0 mm 0.00 in0.0 mm 0.01 in0.3 mm
05:30 AM 67.8°F19.9°C 61.4°F16.3°C 80% Calm Calm -- 29.39 in995.3 mb 0.00 in0.0 mm 0.00 in0.0 mm 0.01 in0.3 mm
05:40 AM 67.6°F19.8°C 61.3°F16.3°C 80% Calm Calm -- 29.40 in995.6 mb 0.00 in0.0 mm 0.00 in0.0 mm 0.01 in0.3 mm
05:50 AM 67.8°F19.9°C 61.1°F16.2°C 79% Calm Calm -- 29.41 in995.9 mb 0.00 in0.0 mm 0.00 in0.0 mm 0.01 in0.3 mm
06:00 AM 68.0°F20.0°C 60.2°F15.7°C 76% 1.6 mph WSW2.6 kmh WSW 3.1 mph5.0 kmh 29.42 in996.3 mb 0.00 in0.0 mm 0.00 in0.0 mm 0.01 in0.3 mm
06:10 AM 67.6°F19.8°C 61.3°F16.3°C 80% 2.2 mph WSW3.5 kmh WSW 3.8 mph6.1 kmh 29.43 in996.6 mb 0.00 in0.0 mm 0.00 in0.0 mm 0.01 in0.3 mm
06:20 AM 66.6°F19.2°C 61.6°F16.4°C 84% 1.6 mph SW2.6 kmh SW 4.5 mph7.2 kmh 29.44 in997.0 mb 0.00 in0.0 mm 0.00 in0.0 mm 0.01 in0.3 mm
06:30 AM 65.7°F18.7°C 62.0°F16.7°C 88% Calm Calm 5.4 mph8.7 kmh 29.45 in997.3 mb 0.00 in0.0 mm 0.00 in0.0 mm 0.01 in0.3 mm
06:40 AM 65.3°F18.5°C 62.0°F16.7°C 89% Calm Calm 2.2 mph3.5 kmh 29.46 in997.6 mb 0.01 in0.3 mm 0.06 in1.5 mm 0.02 in0.5 mm
06:50 AM 65.5°F18.6°C 62.5°F16.9°C 90% Calm Calm 0.7 mph1.1 kmh 29.47 in998.0 mb 0.01 in0.3 mm 0.00 in0.0 mm 0.02 in0.5 mm
07:00 AM 65.5°F18.6°C 62.2°F16.8°C 89% Calm Calm 2.2 mph3.5 kmh 29.48 in998.3 mb 0.01 in0.3 mm 0.00 in0.0 mm 0.02 in0.5 mm
07:10 AM 65.7°F18.7°C 62.4°F16.9°C 89% Calm Calm 2.2 mph3.5 kmh 29.49 in998.6 mb 0.01 in0.3 mm 0.00 in0.0 mm 0.02 in0.5 mm
07:20 AM 65.7°F18.7°C 62.4°F16.9°C 89% Calm Calm 0.7 mph1.1 kmh 29.49 in998.6 mb 0.02 in0.5 mm 0.06 in1.5 mm 0.04 in1.0 mm
07:30 AM 66.2°F19.0°C 62.6°F17.0°C 88% Calm Calm -- 29.50 in999.0 mb 0.02 in0.5 mm 0.00 in0.0 mm 0.04 in1.0 mm
07:40 AM 66.9°F19.4°C 63.3°F17.4°C 88% Calm Calm -- 29.50 in999.0 mb 0.01 in0.3 mm 0.00 in0.0 mm 0.04 in1.0 mm
07:50 AM 67.6°F19.8°C 64.0°F17.8°C 88% Calm Calm -- 29.51 in999.3 mb 0.01 in0.3 mm 0.00 in0.0 mm 0.04 in1.0 mm
08:00 AM 68.2°F20.1°C 63.5°F17.5°C 85% Calm Calm -- 29.52 in999.7 mb 0.01 in0.3 mm 0.00 in0.0 mm 0.04 in1.0 mm
08:10 AM 68.4°F20.2°C 63.7°F17.6°C 85% Calm Calm -- 29.52 in999.7 mb 0.01 in0.3 mm 0.00 in0.0 mm 0.04 in1.0 mm
08:20 AM 68.0°F20.0°C 63.0°F17.2°C 84% Calm Calm -- 29.52 in999.7 mb 0.00 in0.0 mm 0.00 in0.0 mm 0.04 in1.0 mm
08:30 AM 68.0°F20.0°C 63.0°F17.2°C 84% Calm Calm -- 29.53 in1000.0 mb 0.00 in0.0 mm 0.00 in0.0 mm 0.04 in1.0 mm
08:40 AM 68.4°F20.2°C 63.4°F17.4°C 84% Calm Calm -- 29.54 in1000.3 mb 0.00 in0.0 mm 0.00 in0.0 mm 0.04 in1.0 mm
08:50 AM 68.4°F20.2°C 63.4°F17.4°C 84% Calm Calm -- 29.54 in1000.3 mb 0.00 in0.0 mm 0.00 in0.0 mm 0.04 in1.0 mm
09:00 AM 68.9°F20.5°C 63.9°F17.7°C 84% Calm Calm -- 29.55 in1000.7 mb 0.00 in0.0 mm 0.00 in0.0 mm 0.04 in1.0 mm
09:10 AM 69.1°F20.6°C 63.0°F17.2°C 81% Calm Calm -- 29.56 in1001.0 mb 0.00 in0.0 mm 0.00 in0.0 mm 0.04 in1.0 mm
09:20 AM 69.1°F20.6°C 62.0°F16.7°C 78% Calm Calm -- 29.57 in1001.4 mb 0.00 in0.0 mm 0.00 in0.0 mm 0.04 in1.0 mm
09:30 AM 68.5°F20.3°C 60.7°F15.9°C 76% Calm Calm 3.8 mph6.1 kmh 29.58 in1001.7 mb 0.00 in0.0 mm 0.00 in0.0 mm 0.04 in1.0 mm
09:40 AM 68.4°F20.2°C 61.6°F16.4°C 79% Calm Calm 3.1 mph5.0 kmh 29.57 in1001.4 mb 0.00 in0.0 mm 0.00 in0.0 mm 0.04 in1.0 mm
09:50 AM 68.5°F20.3°C 62.2°F16.8°C 80% Calm Calm 1.6 mph2.6 kmh 29.58 in1001.7 mb 0.00 in0.0 mm 0.00 in0.0 mm 0.04 in1.0 mm
10:00 AM 68.4°F20.2°C 61.6°F16.4°C 79% Calm Calm 3.8 mph6.1 kmh 29.59 in1002.0 mb 0.00 in0.0 mm 0.00 in0.0 mm 0.04 in1.0 mm
10:10 AM 68.4°F20.2°C 62.0°F16.7°C 80% 4.5 mph SSW7.2 kmh SSW 7.6 mph12.2 kmh 29.59 in1002.0 mb 0.00 in0.0 mm 0.00 in0.0 mm 0.04 in1.0 mm
10:20 AM 68.2°F20.1°C 60.7°F15.9°C 77% 5.4 mph SSW8.7 kmh SSW 12.1 mph19.5 kmh 29.59 in1002.0 mb 0.00 in0.0 mm 0.00 in0.0 mm 0.04 in1.0 mm
10:30 AM 68.4°F20.2°C 59.0°F15.0°C 72% 9.2 mph SW14.8 kmh SW 15.9 mph25.6 kmh 29.60 in1002.4 mb 0.00 in0.0 mm 0.00 in0.0 mm 0.04 in1.0 mm
10:40 AM 68.9°F20.5°C 59.9°F15.5°C 73% 6.9 mph SW11.1 kmh SW 13.6 mph21.9 kmh 29.61 in1002.7 mb 0.00 in0.0 mm 0.00 in0.0 mm 0.04 in1.0 mm
10:50 AM 69.3°F20.7°C 60.3°F15.7°C 73% 3.1 mph SSW5.0 kmh SSW 10.7 mph17.2 kmh 29.61 in1002.7 mb 0.00 in0.0 mm 0.00 in0.0 mm 0.04 in1.0 mm
11:00 AM 70.2°F21.2°C 59.5°F15.3°C 69% 4.5 mph SW7.2 kmh SW 11.4 mph18.3 kmh 29.62 in1003.0 mb 0.00 in0.0 mm 0.00 in0.0 mm 0.04 in1.0 mm
11:10 AM 70.9°F21.6°C 59.8°F15.4°C 68% 6.0 mph SSW9.7 kmh SSW 13.0 mph20.9 kmh 29.62 in1003.0 mb 0.00 in0.0 mm 0.00 in0.0 mm 0.04 in1.0 mm
11:20 AM 69.8°F21.0°C 57.5°F14.2°C 65% 3.8 mph S6.1 kmh S 13.6 mph21.9 kmh 29.63 in1003.4 mb 0.00 in0.0 mm 0.00 in0.0 mm 0.04 in1.0 mm
11:30 AM 70.0°F21.1°C 59.0°F15.0°C 68% 3.8 mph S6.1 kmh S 10.7 mph17.2 kmh 29.64 in1003.7 mb 0.00 in0.0 mm 0.00 in0.0 mm 0.04 in1.0 mm
11:40 AM 69.3°F20.7°C 59.9°F15.5°C 72% 2.2 mph SSW3.5 kmh SSW 7.6 mph12.2 kmh 29.64 in1003.7 mb 0.00 in0.0 mm 0.00 in0.0 mm 0.04 in1.0 mm
11:50 AM 69.6°F20.9°C 60.6°F15.9°C 73% 5.4 mph S8.7 kmh S 7.6 mph12.2 kmh 29.65 in1004.1 mb 0.00 in0.0 mm 0.00 in0.0 mm 0.04 in1.0 mm
12:00 PM 69.4°F20.8°C 60.8°F16.0°C 74% 2.2 mph SSW3.5 kmh SSW 9.2 mph14.8 kmh 29.65 in1004.1 mb 0.00 in0.0 mm 0.00 in0.0 mm 0.04 in1.0 mm
12:10 PM 68.5°F20.3°C 59.9°F15.5°C 74% 2.2 mph S3.5 kmh S 6.9 mph11.1 kmh 29.65 in1004.1 mb 0.00 in0.0 mm 0.00 in0.0 mm 0.04 in1.0 mm
12:20 PM 68.9°F20.5°C 58.7°F14.8°C 70% 3.8 mph S6.1 kmh S 10.7 mph17.2 kmh 29.65 in1004.1 mb 0.00 in0.0 mm 0.00 in0.0 mm 0.04 in1.0 mm
12:30 PM 68.5°F20.3°C 58.0°F14.4°C 69% 0.7 mph S1.1 kmh S 11.4 mph18.3 kmh 29.66 in1004.4 mb 0.00 in0.0 mm 0.00 in0.0 mm 0.04 in1.0 mm
12:40 PM 69.8°F21.0°C 60.4°F15.8°C 72% 1.6 mph S2.6 kmh S 7.6 mph12.2 kmh 29.65 in1004.1 mb 0.00 in0.0 mm 0.00 in0.0 mm 0.04 in1.0 mm
12:50 PM 72.0°F22.2°C 59.6°F15.3°C 65% 1.6 mph SSW2.6 kmh SSW 10.7 mph17.2 kmh 29.66 in1004.4 mb 0.00 in0.0 mm 0.00 in0.0 mm 0.04 in1.0 mm
01:00 PM 70.5°F21.4°C 58.6°F14.8°C 66% 5.4 mph S8.7 kmh S 11.4 mph18.3 kmh 29.67 in1004.7 mb 0.00 in0.0 mm 0.00 in0.0 mm 0.04 in1.0 mm
01:10 PM 71.1°F21.7°C 59.6°F15.3°C 67% 5.4 mph S8.7 kmh S 9.8 mph15.8 kmh 29.67 in1004.7 mb 0.00 in0.0 mm 0.00 in0.0 mm 0.04 in1.0 mm
01:20 PM 70.9°F21.6°C 58.6°F14.8°C 65% 5.4 mph S8.7 kmh S 9.2 mph14.8 kmh 29.67 in1004.7 mb 0.00 in0.0 mm 0.00 in0.0 mm 0.04 in1.0 mm
01:30 PM 70.5°F21.4°C 57.8°F14.3°C 64% 4.5 mph S7.2 kmh S 9.8 mph15.8 kmh 29.68 in1005.1 mb 0.00 in0.0 mm 0.00 in0.0 mm 0.04 in1.0 mm
01:40 PM 71.6°F22.0°C 57.9°F14.4°C 62% 1.6 mph S2.6 kmh S 7.6 mph12.2 kmh 29.68 in1005.1 mb 0.00 in0.0 mm 0.00 in0.0 mm 0.04 in1.0 mm
01:50 PM 70.9°F21.6°C 57.7°F14.3°C 63% 3.1 mph S5.0 kmh S 7.6 mph12.2 kmh 29.68 in1005.1 mb 0.00 in0.0 mm 0.00 in0.0 mm 0.04 in1.0 mm
02:00 PM 70.3°F21.3°C 57.2°F14.0°C 63% 3.1 mph S5.0 kmh S 8.3 mph13.4 kmh 29.69 in1005.4 mb 0.00 in0.0 mm 0.00 in0.0 mm 0.04 in1.0 mm
02:10 PM 70.9°F21.6°C 58.6°F14.8°C 65% Calm Calm 8.3 mph13.4 kmh 29.69 in1005.4 mb 0.00 in0.0 mm 0.00 in0.0 mm 0.04 in1.0 mm
02:20 PM 70.5°F21.4°C 59.5°F15.3°C 68% 3.8 mph S6.1 kmh S 13.0 mph20.9 kmh 29.70 in1005.8 mb 0.00 in0.0 mm 0.00 in0.0 mm 0.04 in1.0 mm
02:30 PM 68.9°F20.5°C 57.9°F14.4°C 68% 5.4 mph S8.7 kmh S 11.4 mph18.3 kmh 29.70 in1005.8 mb 0.00 in0.0 mm 0.00 in0.0 mm 0.04 in1.0 mm
02:40 PM 68.2°F20.1°C 57.2°F14.0°C 68% 6.0 mph S9.7 kmh S 16.8 mph27.0 kmh 29.72 in1006.4 mb 0.00 in0.0 mm 0.00 in0.0 mm 0.04 in1.0 mm
02:50 PM 65.3°F18.5°C 56.1°F13.4°C 72% 1.6 mph S2.6 kmh S 12.1 mph19.5 kmh 29.72 in1006.4 mb 0.00 in0.0 mm 0.00 in0.0 mm 0.04 in1.0 mm
03:00 PM 64.6°F18.1°C 56.5°F13.6°C 75% 4.5 mph S7.2 kmh S 9.2 mph14.8 kmh 29.72 in1006.4 mb 0.00 in0.0 mm 0.00 in0.0 mm 0.04 in1.0 mm
03:10 PM 64.2°F17.9°C 56.5°F13.6°C 76% 2.2 mph S3.5 kmh S 10.7 mph17.2 kmh 29.73 in1006.8 mb 0.00 in0.0 mm 0.00 in0.0 mm 0.04 in1.0 mm
03:20 PM 64.0°F17.8°C 56.0°F13.3°C 75% 1.6 mph S2.6 kmh S 8.3 mph13.4 kmh 29.73 in1006.8 mb 0.00 in0.0 mm 0.00 in0.0 mm 0.04 in1.0 mm
03:30 PM 64.4°F18.0°C 55.6°F13.1°C 73% 6.9 mph S11.1 kmh S 9.8 mph15.8 kmh 29.73 in1006.8 mb 0.00 in0.0 mm 0.00 in0.0 mm 0.04 in1.0 mm
03:40 PM 64.2°F17.9°C 55.8°F13.2°C 74% 6.9 mph S11.1 kmh S 13.6 mph21.9 kmh 29.74 in1007.1 mb 0.00 in0.0 mm 0.00 in0.0 mm 0.04 in1.0 mm
03:50 PM 63.9°F17.7°C 55.1°F12.8°C 73% 6.9 mph S11.1 kmh S 13.6 mph21.9 kmh 29.75 in1007.5 mb 0.00 in0.0 mm 0.00 in0.0 mm 0.04 in1.0 mm
04:00 PM 63.9°F17.7°C 55.4°F13.0°C 74% 3.1 mph S5.0 kmh S 13.6 mph21.9 kmh 29.75 in1007.5 mb 0.00 in0.0 mm 0.00 in0.0 mm 0.04 in1.0 mm
04:10 PM 64.4°F18.0°C 56.3°F13.5°C 75% 2.2 mph S3.5 kmh S 8.3 mph13.4 kmh 29.75 in1007.5 mb 0.00 in0.0 mm 0.00 in0.0 mm 0.04 in1.0 mm
04:20 PM 64.2°F17.9°C 55.4°F13.0°C 73% 2.2 mph S3.5 kmh S 9.8 mph15.8 kmh 29.76 in1007.8 mb 0.00 in0.0 mm 0.00 in0.0 mm 0.04 in1.0 mm
04:30 PM 64.0°F17.8°C 55.2°F12.9°C 73% 3.1 mph S5.0 kmh S 10.7 mph17.2 kmh 29.76 in1007.8 mb 0.00 in0.0 mm 0.00 in0.0 mm 0.04 in1.0 mm
04:40 PM 63.9°F17.7°C 55.1°F12.8°C 73% 5.4 mph S8.7 kmh S 8.3 mph13.4 kmh 29.76 in1007.8 mb 0.00 in0.0 mm 0.00 in0.0 mm 0.04 in1.0 mm
04:50 PM 63.5°F17.5°C 54.7°F12.6°C 73% 1.6 mph S2.6 kmh S 9.8 mph15.8 kmh 29.76 in1007.8 mb 0.00 in0.0 mm 0.00 in0.0 mm 0.04 in1.0 mm
05:00 PM 63.5°F17.5°C 55.5°F13.1°C 75% 3.8 mph S6.1 kmh S 13.0 mph20.9 kmh 29.77 in1008.1 mb 0.00 in0.0 mm 0.00 in0.0 mm 0.04 in1.0 mm
05:10 PM 63.1°F17.3°C 55.1°F12.8°C 75% 3.8 mph S6.1 kmh S 13.0 mph20.9 kmh 29.77 in1008.1 mb 0.00 in0.0 mm 0.00 in0.0 mm 0.04 in1.0 mm
05:20 PM 63.1°F17.3°C 54.7°F12.6°C 74% 3.1 mph S5.0 kmh S 13.0 mph20.9 kmh 29.78 in1008.5 mb 0.00 in0.0 mm 0.00 in0.0 mm 0.04 in1.0 mm
05:30 PM 62.4°F16.9°C 54.4°F12.4°C 75% 9.8 mph S15.8 kmh S 19.0 mph30.6 kmh 29.78 in1008.5 mb 0.00 in0.0 mm 0.00 in0.0 mm 0.04 in1.0 mm
05:40 PM 62.4°F16.9°C 55.1°F12.8°C 77% 5.4 mph S8.7 kmh S 19.0 mph30.6 kmh 29.79 in1008.8 mb 0.00 in0.0 mm 0.00 in0.0 mm 0.04 in1.0 mm
05:50 PM 62.1°F16.7°C 54.4°F12.4°C 76% 5.4 mph S8.7 kmh S 14.5 mph23.3 kmh 29.78 in1008.5 mb 0.00 in0.0 mm 0.00 in0.0 mm 0.04 in1.0 mm
06:00 PM 62.1°F16.7°C 54.8°F12.7°C 77% 7.6 mph S12.2 kmh S 13.0 mph20.9 kmh 29.79 in1008.8 mb 0.00 in0.0 mm 0.00 in0.0 mm 0.04 in1.0 mm
06:10 PM 62.1°F16.7°C 54.1°F12.3°C 75% 6.9 mph S11.1 kmh S 17.4 mph28.0 kmh 29.79 in1008.8 mb 0.00 in0.0 mm 0.00 in0.0 mm 0.04 in1.0 mm
06:20 PM 62.1°F16.7°C 53.7°F12.1°C 74% 5.4 mph S8.7 kmh S 15.9 mph25.6 kmh 29.80 in1009.1 mb 0.00 in0.0 mm 0.00 in0.0 mm 0.04 in1.0 mm
06:30 PM 62.1°F16.7°C 53.7°F12.1°C 74% 3.8 mph S6.1 kmh S 17.4 mph28.0 kmh 29.80 in1009.1 mb 0.00 in0.0 mm 0.00 in0.0 mm 0.04 in1.0 mm
06:40 PM 61.9°F16.6°C 54.2°F12.3°C 76% 3.1 mph S5.0 kmh S 13.6 mph21.9 kmh 29.81 in1009.5 mb 0.00 in0.0 mm 0.00 in0.0 mm 0.04 in1.0 mm
06:50 PM 61.9°F16.6°C 53.9°F12.2°C 75% 3.8 mph S6.1 kmh S 12.1 mph19.5 kmh 29.81 in1009.5 mb 0.00 in0.0 mm 0.00 in0.0 mm 0.04 in1.0 mm
07:00 PM 61.9°F16.6°C 53.1°F11.7°C 73% 3.1 mph S5.0 kmh S 15.9 mph25.6 kmh 29.83 in1010.2 mb 0.00 in0.0 mm 0.00 in0.0 mm 0.04 in1.0 mm
07:10 PM 61.9°F16.6°C 53.5°F11.9°C 74% 4.5 mph S7.2 kmh S 13.6 mph21.9 kmh 29.83 in1010.2 mb 0.00 in0.0 mm 0.00 in0.0 mm 0.04 in1.0 mm
07:20 PM 62.1°F16.7°C 54.1°F12.3°C 75% 6.9 mph S11.1 kmh S 13.6 mph21.9 kmh 29.84 in1010.5 mb 0.00 in0.0 mm 0.00 in0.0 mm 0.04 in1.0 mm
07:30 PM 61.7°F16.5°C 53.7°F12.1°C 75% 3.8 mph SSW6.1 kmh SSW 13.0 mph20.9 kmh 29.84 in1010.5 mb 0.00 in0.0 mm 0.00 in0.0 mm 0.04 in1.0 mm
07:40 PM 61.7°F16.5°C 53.0°F11.7°C 73% 2.2 mph S3.5 kmh S 13.0 mph20.9 kmh 29.84 in1010.5 mb 0.00 in0.0 mm 0.00 in0.0 mm 0.04 in1.0 mm
07:50 PM 61.5°F16.4°C 53.2°F11.8°C 74% 2.2 mph SSW3.5 kmh SSW 11.4 mph18.3 kmh 29.84 in1010.5 mb 0.00 in0.0 mm 0.00 in0.0 mm 0.04 in1.0 mm
08:00 PM 61.3°F16.3°C 52.3°F11.3°C 72% 6.9 mph S11.1 kmh S 15.2 mph24.5 kmh 29.86 in1011.2 mb 0.00 in0.0 mm 0.00 in0.0 mm 0.04 in1.0 mm
08:10 PM 61.3°F16.3°C 52.3°F11.3°C 72% 8.3 mph S13.4 kmh S 16.8 mph27.0 kmh 29.86 in1011.2 mb 0.00 in0.0 mm 0.00 in0.0 mm 0.04 in1.0 mm
08:20 PM 61.3°F16.3°C 52.3°F11.3°C 72% 5.4 mph S8.7 kmh S 15.9 mph25.6 kmh 29.87 in1011.5 mb 0.00 in0.0 mm 0.00 in0.0 mm 0.04 in1.0 mm
08:30 PM 61.3°F16.3°C 52.6°F11.4°C 73% 9.8 mph S15.8 kmh S 15.9 mph25.6 kmh 29.88 in1011.9 mb 0.00 in0.0 mm 0.00 in0.0 mm 0.04 in1.0 mm
08:40 PM 61.3°F16.3°C 52.3°F11.3°C 72% 3.1 mph S5.0 kmh S 17.4 mph28.0 kmh 29.88 in1011.9 mb 0.00 in0.0 mm 0.00 in0.0 mm 0.04 in1.0 mm
08:50 PM 61.2°F16.2°C 52.1°F11.2°C 72% 8.3 mph S13.4 kmh S 13.0 mph20.9 kmh 29.88 in1011.9 mb 0.00 in0.0 mm 0.00 in0.0 mm 0.04 in1.0 mm
09:00 PM 61.0°F16.1°C 51.9°F11.1°C 72% 1.6 mph S2.6 kmh S 15.2 mph24.5 kmh 29.88 in1011.9 mb 0.00 in0.0 mm 0.00 in0.0 mm 0.04 in1.0 mm
09:10 PM 61.0°F16.1°C 52.3°F11.3°C 73% 5.4 mph S8.7 kmh S 12.1 mph19.5 kmh 29.89 in1012.2 mb 0.00 in0.0 mm 0.00 in0.0 mm 0.04 in1.0 mm
09:20 PM 61.0°F16.1°C 50.4°F10.2°C 68% 3.8 mph S6.1 kmh S 13.0 mph20.9 kmh 29.90 in1012.5 mb 0.00 in0.0 mm 0.00 in0.0 mm 0.04 in1.0 mm
09:30 PM 61.2°F16.2°C 50.5°F10.3°C 68% 5.4 mph S8.7 kmh S 14.5 mph23.3 kmh 29.89 in1012.2 mb 0.00 in0.0 mm 0.00 in0.0 mm 0.04 in1.0 mm
09:40 PM 61.0°F16.1°C 50.8°F10.4°C 69% 7.6 mph S12.2 kmh S 15.2 mph24.5 kmh 29.89 in1012.2 mb 0.00 in0.0 mm 0.00 in0.0 mm 0.04 in1.0 mm
09:50 PM 60.8°F16.0°C 51.7°F10.9°C 72% 4.5 mph SSW7.2 kmh SSW 13.0 mph20.9 kmh 29.90 in1012.5 mb 0.00 in0.0 mm 0.00 in0.0 mm 0.04 in1.0 mm
10:00 PM 60.8°F16.0°C 51.7°F10.9°C 72% 4.5 mph SSW7.2 kmh SSW 11.4 mph18.3 kmh 29.89 in1012.2 mb 0.00 in0.0 mm 0.00 in0.0 mm 0.04 in1.0 mm
10:10 PM 60.8°F16.0°C 51.0°F10.6°C 70% 4.5 mph SSW7.2 kmh SSW 15.2 mph24.5 kmh 29.89 in1012.2 mb 0.00 in0.0 mm 0.00 in0.0 mm 0.04 in1.0 mm
10:20 PM 60.8°F16.0°C 52.1°F11.2°C 73% 6.9 mph S11.1 kmh S 14.5 mph23.3 kmh 29.90 in1012.5 mb 0.00 in0.0 mm 0.00 in0.0 mm 0.04 in1.0 mm
10:30 PM 60.6°F15.9°C 52.3°F11.3°C 74% 8.3 mph SSW13.4 kmh SSW 14.5 mph23.3 kmh 29.89 in1012.2 mb 0.00 in0.0 mm 0.00 in0.0 mm 0.04 in1.0 mm
10:40 PM 60.6°F15.9°C 51.9°F11.1°C 73% 2.2 mph S3.5 kmh S 13.6 mph21.9 kmh 29.90 in1012.5 mb 0.00 in0.0 mm 0.00 in0.0 mm 0.04 in1.0 mm
10:50 PM 60.6°F15.9°C 52.3°F11.3°C 74% 6.9 mph SSW11.1 kmh SSW 14.5 mph23.3 kmh 29.91 in1012.9 mb 0.00 in0.0 mm 0.00 in0.0 mm 0.04 in1.0 mm
11:00 PM 60.6°F15.9°C 52.3°F11.3°C 74% 6.9 mph SSW11.1 kmh SSW 14.5 mph23.3 kmh 29.91 in1012.9 mb 0.00 in0.0 mm 0.00 in0.0 mm 0.03 in0.8 mm
11:10 PM 60.4°F15.8°C 51.4°F10.8°C 72% 3.1 mph SSW5.0 kmh SSW 10.7 mph17.2 kmh 29.91 in1012.9 mb 0.00 in0.0 mm 0.00 in0.0 mm 0.03 in0.8 mm
11:20 PM 60.6°F15.9°C 50.8°F10.4°C 70% 2.2 mph SSW3.5 kmh SSW 11.4 mph18.3 kmh 29.91 in1012.9 mb 0.00 in0.0 mm 0.00 in0.0 mm 0.03 in0.8 mm
11:30 PM 60.4°F15.8°C 52.1°F11.2°C 74% 1.6 mph SW2.6 kmh SW 6.9 mph11.1 kmh 29.91 in1012.9 mb 0.00 in0.0 mm 0.00 in0.0 mm 0.03 in0.8 mm
11:40 PM 60.3°F15.7°C 52.0°F11.1°C 74% 1.6 mph SW2.6 kmh SW 8.3 mph13.4 kmh 29.91 in1012.9 mb 0.00 in0.0 mm 0.00 in0.0 mm 0.03 in0.8 mm
11:50 PM 60.3°F15.7°C 51.6°F10.9°C 73% Calm Calm 9.8 mph15.8 kmh 29.91 in1012.9 mb 0.00 in0.0 mm 0.00 in0.0 mm 0.03 in0.8 mm